sensor_id;sensor_type;location;lat;lon;timestamp;temperature;humidity
43414;DHT22;73638;49.676;8.606;2024-02-16T00:02:05;13.2612;70.9102
43414;DHT22;73638;49.676;8.606;2024-02-16T00:07:12;13.2692;71.426
43414;DHT22;73638;49.676;8.606;2024-02-16T00:12:19;13.2052;71.5129
43414;DHT22;73638;49.676;8.606;2024-02-16T00:17:26;13.1838;71.7708
43414;DHT22;73638;49.676;8.606;2024-02-16T00:22:33;13.2612;71.7708
43414;DHT22;73638;49.676;8.606;2024-02-16T00:27:40;13.3253;71.6472
43414;DHT22;73638;49.676;8.606;2024-02-16T00:32:47;13.3654;71.783
43414;DHT22;73638;49.676;8.606;2024-02-16T00:37:53;13.3173;71.5862
43414;DHT22;73638;49.676;8.606;2024-02-16T00:43:00;13.4001;71.3283
43414;DHT22;73638;49.676;8.606;2024-02-16T00:48:07;13.4161;71.4641
43414;DHT22;73638;49.676;8.606;2024-02-16T00:53:14;13.3307;70.5303
43414;DHT22;73638;49.676;8.606;2024-02-16T00:58:21;13.2185;70.0374
43414;DHT22;73638;49.676;8.606;2024-02-16T01:03:28;13.1704;70.6767
43414;DHT22;73638;49.676;8.606;2024-02-16T01:08:34;13.2052;71.1315
43414;DHT22;73638;49.676;8.606;2024-02-16T01:13:41;13.3093;71.4519
43414;DHT22;73638;49.676;8.606;2024-02-16T01:18:48;13.2826;71.2184
43414;DHT22;73638;49.676;8.606;2024-02-16T01:23:55;13.4001;71.2306
43414;DHT22;73638;49.676;8.606;2024-02-16T01:29:02;13.2559;71.4397
43414;DHT22;73638;49.676;8.606;2024-02-16T01:34:09;13.2692;71.3893
43414;DHT22;73638;49.676;8.606;2024-02-16T01:39:16;13.3387;71.3649
43414;DHT22;73638;49.676;8.606;2024-02-16T01:44:23;13.3654;71.0704
43414;DHT22;73638;49.676;8.606;2024-02-16T01:49:30;13.2612;70.5547
43414;DHT22;73638;49.676;8.606;2024-02-16T01:54:37;13.2479;70.0374
43414;DHT22;73638;49.676;8.606;2024-02-16T01:59:43;13.2185;70.1244
43414;DHT22;73638;49.676;8.606;2024-02-16T02:04:50;13.1918;70.898
43414;DHT22;73638;49.676;8.606;2024-02-16T02:09:57;13.2345;71.2551
43414;DHT22;73638;49.676;8.606;2024-02-16T02:15:05;13.2906;71.722
43414;DHT22;73638;49.676;8.606;2024-02-16T02:20:11;13.3253;71.6228
43414;DHT22;73638;49.676;8.606;2024-02-16T02:25:17;13.3467;71.8074
43414;DHT22;73638;49.676;8.606;2024-02-16T02:30:24;13.3814;71.722
43414;DHT22;73638;49.676;8.606;2024-02-16T02:35:31;13.4001;71.6594
43414;DHT22;73638;49.676;8.606;2024-02-16T02:40:38;13.304;71.4015
43414;DHT22;73638;49.676;8.606;2024-02-16T02:45:45;13.3093;71.783
43414;DHT22;73638;49.676;8.606;2024-02-16T02:50:52;13.304;71.7342
43414;DHT22;73638;49.676;8.606;2024-02-16T02:55:59;13.3387;71.7464
43414;DHT22;73638;49.676;8.606;2024-02-16T03:01:06;13.2692;72.0287
43414;DHT22;73638;49.676;8.606;2024-02-16T03:06:17;13.2185;70.9102
43414;DHT22;73638;49.676;8.606;2024-02-16T03:11:19;13.1437;70.6279
43414;DHT22;73638;49.676;8.606;2024-02-16T03:16:26;13.0022;71.5251
43414;DHT22;73638;49.676;8.606;2024-02-16T03:21:33;13.0449;71.9677
43414;DHT22;73638;49.676;8.606;2024-02-16T03:26:40;13.0743;71.9066
43414;DHT22;73638;49.676;8.606;2024-02-16T03:31:47;13.1224;71.9921
43414;DHT22;73638;49.676;8.606;2024-02-16T03:36:54;13.0743;71.783
43414;DHT22;73638;49.676;8.606;2024-02-16T03:42:01;13.093;71.5984
43414;DHT22;73638;49.676;8.606;2024-02-16T03:47:08;13.0369;71.8196
43414;DHT22;73638;49.676;8.606;2024-02-16T03:52:14;13.0797;71.5984
43414;DHT22;73638;49.676;8.606;2024-02-16T03:57:21;13.0316;71.426
43414;DHT22;73638;49.676;8.606;2024-02-16T04:02:28;12.9194;71.6472
43414;DHT22;73638;49.676;8.606;2024-02-16T04:07:35;12.9194;70.898
43414;DHT22;73638;49.676;8.606;2024-02-16T04:12:42;12.7939;70.6645
43414;DHT22;73638;49.676;8.606;2024-02-16T04:17:49;12.5776;70.5303
43414;DHT22;73638;49.676;8.606;2024-02-16T04:22:55;12.583;70.2464
43414;DHT22;73638;49.676;8.606;2024-02-16T04:28:02;12.4441;70.0008
43414;DHT22;73638;49.676;8.606;2024-02-16T04:33:09;12.4308;70.2342
43414;DHT22;73638;49.676;8.606;2024-02-16T04:38:17;12.3667;70.9972
43414;DHT22;73638;49.676;8.606;2024-02-16T04:43:22;12.4361;71.7586
43414;DHT22;73638;49.676;8.606;2024-02-16T04:48:30;12.5429;72.1264
43414;DHT22;73638;49.676;8.606;2024-02-16T04:53:36;12.5135;72.5078
43414;DHT22;73638;49.676;8.606;2024-02-16T04:58:43;12.5643;72.5933
43414;DHT22;73638;49.676;8.606;2024-02-16T05:03:50;12.6177;72.6436
43414;DHT22;73638;49.676;8.606;2024-02-16T05:08:57;12.6471;72.6192
43414;DHT22;73638;49.676;8.606;2024-02-16T05:14:04;12.6337;72.5933
43414;DHT22;73638;49.676;8.606;2024-02-16T05:19:11;12.7298;72.2377
43414;DHT22;73638;49.676;8.606;2024-02-16T05:24:17;12.6337;72.2011
43414;DHT22;73638;49.676;8.606;2024-02-16T05:29:25;12.583;72.2866
43414;DHT22;73638;49.676;8.606;2024-02-16T05:34:31;12.5429;72.459
43414;DHT22;73638;49.676;8.606;2024-02-16T05:39:38;12.5429;72.1141
43414;DHT22;73638;49.676;8.606;2024-02-16T05:44:45;12.5696;72.0653
43414;DHT22;73638;49.676;8.606;2024-02-16T05:49:52;12.639;72.1141
43414;DHT22;73638;49.676;8.606;2024-02-16T05:54:59;12.6337;72.1019
43414;DHT22;73638;49.676;8.606;2024-02-16T06:00:07;12.842;71.9554
43414;DHT22;73638;49.676;8.606;2024-02-16T06:05:13;12.7806;71.3283
43414;DHT22;73638;49.676;8.606;2024-02-16T06:10:20;12.6551;70.7881
43414;DHT22;73638;49.676;8.606;2024-02-16T06:15:27;12.5002;70.7011
43414;DHT22;73638;49.676;8.606;2024-02-16T06:20:33;12.3747;71.3771
43414;DHT22;73638;49.676;8.606;2024-02-16T06:25:40;12.3053;72.0043
43414;DHT22;73638;49.676;8.606;2024-02-16T06:30:47;12.2625;72.4529
43414;DHT22;73638;49.676;8.606;2024-02-16T06:35:54;12.2011;72.7733
43414;DHT22;73638;49.676;8.606;2024-02-16T06:41:00;12.2011;72.6375
43414;DHT22;73638;49.676;8.606;2024-02-16T06:46:07;11.8727;72.5154
43414;DHT22;73638;49.676;8.606;2024-02-16T06:51:14;11.9287;72.7123
43414;DHT22;73638;49.676;8.606;2024-02-16T06:56:21;11.8433;72.7245
43414;DHT22;73638;49.676;8.606;2024-02-16T07:01:28;11.6831;72.7977
43414;DHT22;73638;49.676;8.606;2024-02-16T07:06:35;11.7044;71.9493
43414;DHT22;73638;49.676;8.606;2024-02-16T07:11:42;11.8219;71.6304
43414;DHT22;73638;49.676;8.606;2024-02-16T07:16:48;11.7258;71.2734
43414;DHT22;73638;49.676;8.606;2024-02-16T07:21:55;11.7311;71.2123
43414;DHT22;73638;49.676;8.606;2024-02-16T07:27:02;11.8006;71.2978
43414;DHT22;73638;49.676;8.606;2024-02-16T07:32:09;12.145;71.8029
43414;DHT22;73638;49.676;8.606;2024-02-16T07:37:16;12.3667;71.7708
43414;DHT22;73638;49.676;8.606;2024-02-16T07:42:23;12.5563;71.6106
43414;DHT22;73638;49.676;8.606;2024-02-16T07:47:31;12.7512;71.1559
43414;DHT22;73638;49.676;8.606;2024-02-16T07:52:38;12.9461;70.9712
43414;DHT22;73638;49.676;8.606;2024-02-16T07:57:44;13.1998;70.37
43414;DHT22;73638;49.676;8.606;2024-02-16T08:02:51;13.4508;70.0511
43414;DHT22;73638;49.676;8.606;2024-02-16T08:07:58;13.6591;69.9397
43414;DHT22;73638;49.676;8.606;2024-02-16T08:13:05;13.9609;68.9723
43414;DHT22;73638;49.676;8.606;2024-02-16T08:18:12;14.0864;68.9113
43414;DHT22;73638;49.676;8.606;2024-02-16T08:23:19;14.308;68.6778
43414;DHT22;73638;49.676;8.606;2024-02-16T08:28:26;14.4068;68.0629
43414;DHT22;73638;49.676;8.606;2024-02-16T08:33:33;14.6231;67.9164
43414;DHT22;73638;49.676;8.606;2024-02-16T08:38:40;14.6792;67.7195
43414;DHT22;73638;49.676;8.606;2024-02-16T08:43:47;14.7913;67.129
43414;DHT22;73638;49.676;8.606;2024-02-16T08:48:54;14.826;66.479
43414;DHT22;73638;49.676;8.606;2024-02-16T08:54:01;14.7486;66.0487
43414;DHT22;73638;49.676;8.606;2024-02-16T08:59:08;14.5964;66.0975
43414;DHT22;73638;49.676;8.606;2024-02-16T09:04:15;14.567;66.7002
43414;DHT22;73638;49.676;8.606;2024-02-16T09:09:22;14.7139;66.7369
43414;DHT22;73638;49.676;8.606;2024-02-16T09:14:28;14.9088;66.5278
43414;DHT22;73638;49.676;8.606;2024-02-16T09:19:36;15.0851;65.7038
43414;DHT22;73638;49.676;8.606;2024-02-16T09:24:43;15.272;65.5192
43414;DHT22;73638;49.676;8.606;2024-02-16T09:29:50;15.3067;65.2247
43414;DHT22;73638;49.676;8.606;2024-02-16T09:34:57;15.3281;64.8432
43414;DHT22;73638;49.676;8.606;2024-02-16T09:40:05;15.3227;64.7211
43414;DHT22;73638;49.676;8.606;2024-02-16T09:45:11;15.531;64.7334
43414;DHT22;73638;49.676;8.606;2024-02-16T09:50:18;15.6432;64.831
43414;DHT22;73638;49.676;8.606;2024-02-16T09:55:25;15.798;64.8188
43414;DHT22;73638;49.676;8.606;2024-02-16T10:00:32;15.993;64.1428
43414;DHT22;73638;49.676;8.606;2024-02-16T10:05:39;15.8461;63.6637
43414;DHT22;73638;49.676;8.606;2024-02-16T10:10:46;15.8247;63.6881
43414;DHT22;73638;49.676;8.606;2024-02-16T10:16:05;15.8728;64.2542
43414;DHT22;73638;49.676;8.606;2024-02-16T10:21:00;16.1265;63.9826
43414;DHT22;73638;49.676;8.606;2024-02-16T10:26:07;16.3348;63.5905
43414;DHT22;73638;49.676;8.606;2024-02-16T10:31:14;16.4897;63.8087
43414;DHT22;73638;49.676;8.606;2024-02-16T10:36:22;16.7807;63.5386
43414;DHT22;73638;49.676;8.606;2024-02-16T10:41:28;16.8528;62.826
43414;DHT22;73638;49.676;8.606;2024-02-16T10:46:36;17.0825;63.0228
43414;DHT22;73638;49.676;8.606;2024-02-16T10:51:45;17.1038;62.6535
43414;DHT22;73638;49.676;8.606;2024-02-16T10:56:53;17.1786;62.4689
43414;DHT22;73638;49.676;8.606;2024-02-16T11:02:00;17.4456;62.5559
43414;DHT22;73638;49.676;8.606;2024-02-16T11:07:11;17.5418;62.15
43414;DHT22;73638;49.676;8.606;2024-02-16T11:12:13;17.4723;62.7146
43414;DHT22;73638;49.676;8.606;2024-02-16T11:17:20;17.3816;62.678
43414;DHT22;73638;49.676;8.606;2024-02-16T11:22:27;17.5631;63.415
43414;DHT22;73638;49.676;8.606;2024-02-16T11:27:34;17.4323;63.0228
43414;DHT22;73638;49.676;8.606;2024-02-16T11:32:42;17.4884;63.3051
43414;DHT22;73638;49.676;8.606;2024-02-16T11:37:47;17.4937;63.9811
43414;DHT22;73638;49.676;8.606;2024-02-16T11:42:58;17.6059;63.9445
43414;DHT22;73638;49.676;8.606;2024-02-16T11:48:04;17.8916;63.4516
43414;DHT22;73638;49.676;8.606;2024-02-16T11:53:08;18.1853;62.0508
43414;DHT22;73638;49.676;8.606;2024-02-16T11:58:16;18.423;60.8469
43414;DHT22;73638;49.676;8.606;2024-02-16T12:03:23;18.5565;59.9741
43414;DHT22;73638;49.676;8.606;2024-02-16T12:08:32;18.6393;59.6796
43414;DHT22;73638;49.676;8.606;2024-02-16T12:13:36;18.6526;59.7894
43414;DHT22;73638;49.676;8.606;2024-02-16T12:18:43;18.6393;59.4827
43414;DHT22;73638;49.676;8.606;2024-02-16T12:23:50;18.5618;58.4756
43414;DHT22;73638;49.676;8.606;2024-02-16T12:28:57;18.4791;58.5122
43414;DHT22;73638;49.676;8.606;2024-02-16T12:34:04;18.2761;58.6221
43414;DHT22;73638;49.676;8.606;2024-02-16T12:39:11;18.164;59.4827
43414;DHT22;73638;49.676;8.606;2024-02-16T12:44:18;18.2975;59.5926
43414;DHT22;73638;49.676;8.606;2024-02-16T12:49:25;18.4016;58.4512
43414;DHT22;73638;49.676;8.606;2024-02-16T12:54:32;18.4363;58.6343
43414;DHT22;73638;49.676;8.606;2024-02-16T12:59:39;18.4016;59.1257
43414;DHT22;73638;49.676;8.606;2024-02-16T13:04:46;18.2975;59.5926
43414;DHT22;73638;49.676;8.606;2024-02-16T13:09:53;18.3322;59.6307
43414;DHT22;73638;49.676;8.606;2024-02-16T13:15:14;18.4016;59.8138
43414;DHT22;73638;49.676;8.606;2024-02-16T13:20:08;18.6126;59.4461
43414;DHT22;73638;49.676;8.606;2024-02-16T13:25:15;18.8209;59.176
43414;DHT22;73638;49.676;8.606;2024-02-16T13:30:22;19.0665;58.7091
43414;DHT22;73638;49.676;8.606;2024-02-16T13:35:29;19.1974;58.4482
43414;DHT22;73638;49.676;8.606;2024-02-16T13:40:36;19.0505;58.88
43414;DHT22;73638;49.676;8.606;2024-02-16T13:45:48;19.0719;58.4756
43414;DHT22;73638;49.676;8.606;2024-02-16T13:50:51;19.2187;58.3993
43414;DHT22;73638;49.676;8.606;2024-02-16T13:55:58;19.2695;58.3505
43414;DHT22;73638;49.676;8.606;2024-02-16T14:01:06;19.1012;58.6221
43414;DHT22;73638;49.676;8.606;2024-02-16T14:06:12;19.0932;58.8922
43414;DHT22;73638;49.676;8.606;2024-02-16T14:11:19;18.8689;59.1012
43414;DHT22;73638;49.676;8.606;2024-02-16T14:16:26;18.8689;59.176
43414;DHT22;73638;49.676;8.606;2024-02-16T14:21:33;18.7167;59.6185
43414;DHT22;73638;49.676;8.606;2024-02-16T14:26:40;18.6179;59.7406
43414;DHT22;73638;49.676;8.606;2024-02-16T14:31:47;18.4096;59.6429
43414;DHT22;73638;49.676;8.606;2024-02-16T14:36:54;18.3108;59.3851
43414;DHT22;73638;49.676;8.606;2024-02-16T14:42:06;18.1025;60.1709
43414;DHT22;73638;49.676;8.606;2024-02-16T14:47:07;18.0251;60.5386
43414;DHT22;73638;49.676;8.606;2024-02-16T14:52:14;17.8222;60.9812
43414;DHT22;73638;49.676;8.606;2024-02-16T14:57:21;17.6619;62.4445
43414;DHT22;73638;49.676;8.606;2024-02-16T15:02:28;17.5364;63.3173
43414;DHT22;73638;49.676;8.606;2024-02-16T15:07:35;17.3602;63.035
43414;DHT22;73638;49.676;8.606;2024-02-16T15:12:42;17.2347;63.6606
43414;DHT22;73638;49.676;8.606;2024-02-16T15:17:49;17.1092;64.3366
43414;DHT22;73638;49.676;8.606;2024-02-16T15:22:56;16.949;64.7669
43414;DHT22;73638;49.676;8.606;2024-02-16T15:28:03;16.9276;65.5909
43414;DHT22;73638;49.676;8.606;2024-02-16T15:33:10;16.8929;65.7877
43414;DHT22;73638;49.676;8.606;2024-02-16T15:38:17;16.7407;66.8437
43414;DHT22;73638;49.676;8.606;2024-02-16T15:38:19;16.7407;66.8437
43414;DHT22;73638;49.676;8.606;2024-02-16T15:43:25;16.6766;67.8264
43414;DHT22;73638;49.676;8.606;2024-02-16T15:48:32;16.5297;67.9866
43414;DHT22;73638;49.676;8.606;2024-02-16T15:53:39;16.4603;68.3177
43414;DHT22;73638;49.676;8.606;2024-02-16T15:58:46;16.3561;69.7337
43414;DHT22;73638;49.676;8.606;2024-02-16T16:03:54;16.2654;70.5074
43414;DHT22;73638;49.676;8.606;2024-02-16T16:09:00;16.0891;71.2947
43414;DHT22;73638;49.676;8.606;2024-02-16T16:14:07;16.1265;71.7495
43414;DHT22;73638;49.676;8.606;2024-02-16T16:19:14;16.0197;72.3507
43414;DHT22;73638;49.676;8.606;2024-02-16T16:24:21;15.993;73.3211
43414;DHT22;73638;49.676;8.606;2024-02-16T16:29:28;15.9636;73.2723
43414;DHT22;73638;49.676;8.606;2024-02-16T16:34:35;15.9369;73.5546
43414;DHT22;73638;49.676;8.606;2024-02-16T16:39:42;15.8328;73.5927
43414;DHT22;73638;49.676;8.606;2024-02-16T16:44:49;15.7473;73.9727
43414;DHT22;73638;49.676;8.606;2024-02-16T16:49:56;15.7473;73.875
43414;DHT22;73638;49.676;8.606;2024-02-16T16:55:03;15.6565;73.7514
43414;DHT22;73638;49.676;8.606;2024-02-16T17:00:11;15.4055;73.727
43414;DHT22;73638;49.676;8.606;2024-02-16T17:05:17;15.4402;74.1939
43414;DHT22;73638;49.676;8.606;2024-02-16T17:10:24;15.4829;74.7219
43414;DHT22;73638;49.676;8.606;2024-02-16T17:15:30;15.4616;74.8455
43414;DHT22;73638;49.676;8.606;2024-02-16T17:20:37;15.4616;75.0301
43414;DHT22;73638;49.676;8.606;2024-02-16T17:25:44;15.4269;75.3307
43414;DHT22;73638;49.676;8.606;2024-02-16T17:30:51;15.3841;75.3582
43414;DHT22;73638;49.676;8.606;2024-02-16T17:35:58;15.3574;75.5322
43414;DHT22;73638;49.676;8.606;2024-02-16T17:41:05;15.2667;75.5688
43414;DHT22;73638;49.676;8.606;2024-02-16T17:46:12;15.2026;75.7992
43414;DHT22;73638;49.676;8.606;2024-02-16T17:51:19;15.2373;75.8999
43414;DHT22;73638;49.676;8.606;2024-02-16T17:56:26;15.1465;75.8633
43414;DHT22;73638;49.676;8.606;2024-02-16T18:01:32;15.0984;76.1212
43414;DHT22;73638;49.676;8.606;2024-02-16T18:06:40;15.0557;76.2127
43414;DHT22;73638;49.676;8.606;2024-02-16T18:11:46;14.9943;76.8856
43414;DHT22;73638;49.676;8.606;2024-02-16T18:16:54;15.0557;76.405
43414;DHT22;73638;49.676;8.606;2024-02-16T18:22:00;14.9943;76.8765
43414;DHT22;73638;49.676;8.606;2024-02-16T18:27:10;14.8394;76.4721
43414;DHT22;73638;49.676;8.606;2024-02-16T18:32:14;14.7433;76.9055
43414;DHT22;73638;49.676;8.606;2024-02-16T18:37:21;14.7993;77.3098
43414;DHT22;73638;49.676;8.606;2024-02-16T18:42:31;14.7486;77.1344
43414;DHT22;73638;49.676;8.606;2024-02-16T18:47:35;14.7993;77.116
43414;DHT22;73638;49.676;8.606;2024-02-16T18:52:42;14.7993;77.4289
43414;DHT22;73638;49.676;8.606;2024-02-16T18:57:49;14.8527;77.4655
43414;DHT22;73638;49.676;8.606;2024-02-16T19:02:56;14.7833;77.3922
43414;DHT22;73638;49.676;8.606;2024-02-16T19:08:04;14.8341;77.2915
43414;DHT22;73638;49.676;8.606;2024-02-16T19:13:10;14.7913;77.438
43414;DHT22;73638;49.676;8.606;2024-02-16T19:18:17;14.778;77.4838
43414;DHT22;73638;49.676;8.606;2024-02-16T19:23:24;14.826;77.6959
43414;DHT22;73638;49.676;8.606;2024-02-16T19:28:30;14.7913;77.705
43414;DHT22;73638;49.676;8.606;2024-02-16T19:33:39;14.6872;77.4472
43414;DHT22;73638;49.676;8.606;2024-02-16T19:38:44;14.527;77.0794
43414;DHT22;73638;49.676;8.606;2024-02-16T19:43:51;14.4495;77.5296
43414;DHT22;73638;49.676;8.606;2024-02-16T19:48:59;14.4709;77.6501
43414;DHT22;73638;49.676;8.606;2024-02-16T19:54:05;14.5617;77.7691
43414;DHT22;73638;49.676;8.606;2024-02-16T19:59:12;14.6365;77.8973
43414;DHT22;73638;49.676;8.606;2024-02-16T20:04:20;14.6017;77.9248
43414;DHT22;73638;49.676;8.606;2024-02-16T20:09:26;14.5804;78.0087
43414;DHT22;73638;49.676;8.606;2024-02-16T20:14:33;14.5804;78.0728
43414;DHT22;73638;49.676;8.606;2024-02-16T20:19:41;14.5109;78.1826
43414;DHT22;73638;49.676;8.606;2024-02-16T20:24:47;14.519;78.2284
43414;DHT22;73638;49.676;8.606;2024-02-16T20:29:54;14.5537;78.0545
43414;DHT22;73638;49.676;8.606;2024-02-16T20:35:02;14.575;78.1643
43414;DHT22;73638;49.676;8.606;2024-02-16T20:40:09;14.5056;78.3764
43414;DHT22;73638;49.676;8.606;2024-02-16T20:45:15;14.3854;77.7691
43414;DHT22;73638;49.676;8.606;2024-02-16T20:50:22;14.2546;77.5021
43414;DHT22;73638;49.676;8.606;2024-02-16T20:55:28;14.2252;77.8057
43414;DHT22;73638;49.676;8.606;2024-02-16T21:00:36;14.2947;78.146
43414;DHT22;73638;49.676;8.606;2024-02-16T21:05:43;14.3587;78.2834
43414;DHT22;73638;49.676;8.606;2024-02-16T21:10:49;14.2813;78.2834
43414;DHT22;73638;49.676;8.606;2024-02-16T21:15:56;14.3454;78.4588
43414;DHT22;73638;49.676;8.606;2024-02-16T21:21:03;14.3801;78.5321
43414;DHT22;73638;49.676;8.606;2024-02-16T21:26:10;14.4362;78.5046
43414;DHT22;73638;49.676;8.606;2024-02-16T21:31:18;14.4202;78.4771
43414;DHT22;73638;49.676;8.606;2024-02-16T21:36:24;14.3587;78.6236
43414;DHT22;73638;49.676;8.606;2024-02-16T21:41:31;14.3294;78.3764
43414;DHT22;73638;49.676;8.606;2024-02-16T21:46:38;14.1772;78.0087
43414;DHT22;73638;49.676;8.606;2024-02-16T21:51:45;14.065;78.2101
43414;DHT22;73638;49.676;8.606;2024-02-16T21:56:52;14.0784;78.3673
43414;DHT22;73638;49.676;8.606;2024-02-16T22:01:59;14.2546;78.6511
43414;DHT22;73638;49.676;8.606;2024-02-16T22:07:06;14.2947;78.5229
43414;DHT22;73638;49.676;8.606;2024-02-16T22:12:13;14.3374;78.6328
43414;DHT22;73638;49.676;8.606;2024-02-16T22:17:20;14.3587;78.5321
43414;DHT22;73638;49.676;8.606;2024-02-16T22:22:27;14.2947;78.6877
43414;DHT22;73638;49.676;8.606;2024-02-16T22:27:34;14.3374;78.5138
43414;DHT22;73638;49.676;8.606;2024-02-16T22:32:41;14.324;78.6419
43414;DHT22;73638;49.676;8.606;2024-02-16T22:37:48;14.3801;78.5779
43414;DHT22;73638;49.676;8.606;2024-02-16T22:42:54;14.3374;78.468
43414;DHT22;73638;49.676;8.606;2024-02-16T22:48:02;14.1985;78.32
43414;DHT22;73638;49.676;8.606;2024-02-16T22:53:08;14.1691;78.4771
43414;DHT22;73638;49.676;8.606;2024-02-16T22:58:15;14.1211;78.5595
43414;DHT22;73638;49.676;8.606;2024-02-16T23:03:22;14.0784;78.735
43414;DHT22;73638;49.676;8.606;2024-02-16T23:08:29;14.1905;78.5321
43414;DHT22;73638;49.676;8.606;2024-02-16T23:13:38;14.2679;78.4131
43414;DHT22;73638;49.676;8.606;2024-02-16T23:18:45;14.2119;78.4588
43414;DHT22;73638;49.676;8.606;2024-02-16T23:23:52;14.2172;78.5046
43414;DHT22;73638;49.676;8.606;2024-02-16T23:28:59;14.2466;78.5321
43414;DHT22;73638;49.676;8.606;2024-02-16T23:34:05;14.2039;78.349
43414;DHT22;73638;49.676;8.606;2024-02-16T23:39:12;14.1131;77.7142
43414;DHT22;73638;49.676;8.606;2024-02-16T23:44:19;13.9662;77.7234
43414;DHT22;73638;49.676;8.606;2024-02-16T23:49:26;13.9181;77.5387
43414;DHT22;73638;49.676;8.606;2024-02-16T23:54:33;13.9048;78.1918
43414;DHT22;73638;49.676;8.606;2024-02-16T23:59:40;13.9528;78.4497
